x

South Brooks (46132) Weather Station

2:00pm - Tue 30th Jun 2015 All times are PDT. -7 hours from GMT.

  • Wind
    29mph
  • Air Temp 58°f
  • Sea Pressure 1022.7mb
  • South Brooks
  • South Brooks

More Historic Weather Station data

Upgrade to MSW Pro to gain access to the past 30 days of data for over 8000 Wavebouys and Weather Stations around the globe.

Join Pro

Comparision Forecast

View Surf forecast
   
Tue 06/30 2:00pm  -   -  29
mph
1022.7mb - 58f
1:00pm  -   -  29
mph
- - -
11:00am 6ft 6s 27 34 mph 1022.3mb 56f 58f
10:00am 6ft 6s 25 29 mph 1021.7mb 56f 58f
9:00am 5ft 6s 25 29 mph 1021.3mb 56f 58f
8:00am  -   -  25
mph
1021.2mb 56f 58f
7:00am  -   -  20
mph
- - 58f
6:00am 5ft 6s 20 25 mph 1020.9mb 56f 58f
5:00am 5ft 5s 22 25 mph 1020.3mb 56f 58f
4:00am 5ft 16s 25 29 mph 1020.2mb 57f 58f
3:00am  -   -  25
mph
1019.8mb 57f 58f
2:00am 5ft 6s 22 27 mph 1019.6mb 57f 59f
1:00am 5ft 6s 22 29 mph 1019.2mb 57f 59f
12:00am  -   -  25
mph
- - 59f
Mon 06/29 11:00pm 5.5ft 6s 25 29 mph 1018.5mb 57f 57f
10:00pm 5.5ft 5s 25 29 mph 1018.1mb 57f 57f
9:00pm 5.5ft 5s 22 29 mph 1017.8mb 57f 59f
8:00pm 5ft 5s 22 25 mph 1017.9mb 57f 59f
7:00pm  -   -  18
mph
- - -
6:00pm 4.5ft 5s 18 22 mph 1017.9mb 57f 59f
5:00pm 4ft 5s 18 20 mph 1018mb 57f 59f
4:00pm 4.5ft 16s 18 22 mph 1017.9mb 57f 58f
3:00pm 4.5ft 16s 13 16 mph 1018mb 57f 58f
2:00pm 4.5ft 16s 18 20 mph 1017.5mb 57f 59f
1:00pm 4.5ft 16s 18 22 mph 1017mb 57f 59f
12:00pm 4.5ft 5s 18 22 mph 1016.5mb 57f 58f
10:00am 4.5ft 16s 18 20 mph 1015.8mb 57f 59f
9:00am 3.5ft 16s 18 20 mph 1015.5mb 57f 59f
8:00am 3.5ft 8s 18 22 mph 1015.1mb 57f 59f
7:00am 4ft 4s 16 18 mph 1015mb 57f 58f
6:00am 4ft 16s 22 25 mph 1014.3mb 57f 59f
5:00am  -   -  18
mph
- - 59f
4:00am 3.5ft 17s 16 18 mph 1015mb 57f 59f
3:00am 3.5ft 8s 11 13 mph 1015.1mb 57f 59f
2:00am 3.5ft 13s 9 11 mph 1014.7mb 57f 58f
1:00am 3.5ft 8s 11 13 mph 1014.5mb 57f 56f
12:00am 3.5ft 9s 9 11 mph 1014.3mb 57f 57f
Sun 06/28 11:00pm 4ft 9s 9 11 mph 1014.1mb 56f 56f
10:00pm 4ft 5s 9 11 mph 1014.1mb 56f 57f
9:00pm 4.5ft 5s 9 11 mph 1014.3mb 56f 58f
8:00pm 4.5ft 9s 13
mph
1013.3mb 56f 59f
7:00pm 4.5ft 9s 18 20 mph 1013.6mb 56f 59f
6:00pm 4.5ft 5s 20 22 mph 1013.7mb 56f 60f
5:00pm 4.5ft 9s 16 18 mph 1014.5mb 56f 60f
4:00pm 4.5ft 9s 18 22 mph 1014.2mb 56f 60f
3:00pm 4.5ft 9s 18 20 mph 1014.6mb 56f 60f
2:00pm 4.5ft 8s 18 22 mph 1014.9mb 56f 59f
1:00pm 4.5ft 8s 20 22 mph 1014.8mb 56f 59f
12:00pm 4.5ft 8s 20 22 mph 1015.1mb 56f 59f
11:00am 4.5ft 9s 16 18 mph 1014.9mb 56f 59f
10:00am 5ft 9s 18 20 mph 1014.6mb 56f 59f
9:00am 5ft 9s 20 22 mph 1014.8mb 56f 59f
8:00am 5ft 10s 20 25 mph 1014.9mb 56f 59f
7:00am 5ft 10s 18 20 mph 1015mb 56f 59f
6:00am 5ft 10s 20 22 mph 1014.8mb 56f 58f
5:00am 5ft 4s 20
mph
1014.9mb 55f 58f
4:00am 4.5ft 10s 20 25 mph 1014.9mb 55f 58f
3:00am 4.5ft 10s 20 25 mph 1015.3mb 55f 58f
2:00am 5ft 10s 18 20 mph 1015.3mb 55f 58f
1:00am 5ft 9s 20 25 mph 1015.2mb 55f 59f
12:00am 5ft 10s 20 22 mph 1015.4mb 56f 59f
Sat 06/27 11:00pm 5ft 9s 20 22 mph 1015.7mb 56f 59f
10:00pm 5ft 5s 25 27 mph 1015.8mb 55f 59f
9:00pm  -   -  22
mph
1015.8mb 55f 59f
8:00pm 5ft 5s 22 29 mph 1016.1mb 55f 59f
7:00pm 4.5ft 8s 22 27 mph 1016.4mb 55f 59f
6:00pm 4.5ft 5s 22 27 mph 1016.8mb 55f 59f
5:00pm 4ft 4s 22 27 mph 1017.1mb 55f 58f
4:00pm 4ft 8s 20 25 mph 1017.6mb 55f 58f
3:00pm 3.5ft 9s 22 27 mph 1017.8mb 55f 58f
2:00pm 3.5ft 8s 20 22 mph 1018mb 55f 58f
1:00pm 4ft 8s 16 18 mph 1018.1mb 55f 58f
12:00pm 4ft 9s 18 20 mph 1018.3mb 54f 58f
11:00am 4.5ft 9s 20 25 mph 1018.1mb 54f 57f
10:00am 4.5ft 9s 20 22 mph 1018mb 54f 57f
9:00am 4.5ft 9s 20 25 mph 1018.1mb 55f 57f
8:00am 4.5ft 8s 25 29 mph 1017.9mb 55f 56f
7:00am 4.5ft 8s 22 27 mph 1018.2mb 55f 56f
6:00am 5ft 8s 22 25 mph 1018.3mb 55f 56f
5:00am 5ft 5s 22 27 mph 1018.3mb 54f 56f
4:00am 5ft 5s 20 25 mph 1018.5mb 54f 56f
3:00am 5ft 8s 22 27 mph 1018.3mb 55f 56f
2:00am 5ft 5s 22 27 mph 1018.3mb 55f 56f
1:00am 5ft 5s 22 27 mph 1018.1mb 55f 56f
12:00am 5ft 9s 25 27 mph 1018.6mb 55f 56f